Arroyo Seco, New Mexico
Current Conditions -  °F | °C
As of 7:35 PM on Friday 28 Nov 2014 (Local Time) from KSKX Reporting Station
Clear Clear  
Wind Chill: 31°   Ceiling: Unl
Heat Index: 36°   Visibility: 10mi
Dew Point: 19°   Wind: 6mph
Humidity: 52%   Direction: 10°N
Pressure: 30.13"   Gusts: NA
Location:  36.52°N, 105.57°W
Report Text: KSKX 290235Z AUTO 01005KT 10SM CLR 02/M07 A3013 RMK AO1
Loading
Personal Weather Stations






























Interactive Weather Map New forecast layout! Learn more

10-Day Weather Forecast

Advertisements
Track Severe Weather on mobile